Time;durP1;ratioP1;P1;durP2;ratioP2;P2;SDS_P1;SDS_P2;PMS_P1;PMS_P2;Temp;Humidity;BMP_temperature;BMP_pressure;BME280_temperature;BME280_humidity;BME280_pressure;Samples;Min_cycle;Max_cycle;Signal;HPM_P1;HPM_P2
2023/04/25 00:00:42;;;;;;;11.8;9.3;;;;;;;11;87.4;97540;;;;
2023/04/25 00:10:42;;;;;;;5.4;3.2;;;;;;;10.8;87.8;97550;;;;
2023/04/25 00:21:42;;;;;;;5.4;3.2;;;;;;;10.8;87.9;97550;;;;
2023/04/25 00:31:42;;;;;;;5.4;3.2;;;;;;;10.8;88.4;97550;;;;
2023/04/25 00:42:42;;;;;;;7;3.7;;;;;;;10.8;88.6;97550;;;;
2023/04/25 00:52:42;;;;;;;7;3.7;;;;;;;10.8;88.6;97550;;;;
2023/04/25 01:02:42;;;;;;;7;3.7;;;;;;;10.7;88.8;97550;;;;
2023/04/25 01:12:42;;;;;;;9.1;4.5;;;;;;;10.7;89.5;97560;;;;
2023/04/25 01:22:42;;;;;;;9.1;4.5;;;;;;;10.7;89.3;97560;;;;
2023/04/25 01:32:42;;;;;;;9.1;4.5;;;;;;;10.7;89.3;97560;;;;
2023/04/25 01:43:42;;;;;;;9.7;6.1;;;;;;;10.7;89;97570;;;;
2023/04/25 01:54:44;;;;;;;9.7;6.1;;;;;;;10.7;89.3;97570;;;;
2023/04/25 02:04:42;;;;;;;9.7;6.1;;;;;;;10.6;89.2;97570;;;;
2023/04/25 02:14:42;;;;;;;12.9;7.1;;;;;;;10.6;89.2;97570;;;;
2023/04/25 02:25:42;;;;;;;12.9;7.1;;;;;;;10.7;88.9;97570;;;;
2023/04/25 02:35:42;;;;;;;12.9;7.1;;;;;;;10.7;88.8;97570;;;;
2023/04/25 02:45:42;;;;;;;12.6;7.8;;;;;;;10.8;88.6;97570;;;;
2023/04/25 02:56:42;;;;;;;12.6;7.8;;;;;;;10.7;89;97570;;;;
2023/04/25 03:07:43;;;;;;;11.4;7.5;;;;;;;10.7;88.6;97560;;;;
2023/04/25 03:17:42;;;;;;;11.4;7.5;;;;;;;10.6;88.9;97570;;;;
2023/04/25 03:28:42;;;;;;;11.4;7.5;;;;;;;10.4;89.1;97580;;;;
2023/04/25 03:39:42;;;;;;;12.9;8.4;;;;;;;10.1;89.3;97590;;;;
2023/04/25 03:49:42;;;;;;;12.9;8.4;;;;;;;10;89.3;97610;;;;
2023/04/25 04:00:42;;;;;;;12.9;8.4;;;;;;;9.9;89.5;97620;;;;
2023/04/25 04:10:42;;;;;;;14.1;9.5;;;;;;;9.8;89.7;97630;;;;
2023/04/25 04:21:42;;;;;;;14.1;9.5;;;;;;;9.6;89.5;97640;;;;
2023/04/25 04:31:42;;;;;;;14.1;9.5;;;;;;;9.5;89;97650;;;;
2023/04/25 04:41:42;;;;;;;10.9;6.1;;;;;;;9.5;89.2;97660;;;;
2023/04/25 04:52:42;;;;;;;10.9;6.1;;;;;;;9.5;89.1;97660;;;;
2023/04/25 05:03:42;;;;;;;10.9;6.1;;;;;;;9.5;88.6;97660;;;;
2023/04/25 05:13:42;;;;;;;8.9;5.4;;;;;;;9.6;88;97670;;;;
2023/04/25 05:24:42;;;;;;;8.9;5.4;;;;;;;9.4;87.7;97680;;;;
2023/04/25 05:34:42;;;;;;;8.9;5.4;;;;;;;9.4;88.1;97680;;;;
2023/04/25 05:44:42;;;;;;;10.7;5.8;;;;;;;9.4;88.2;97690;;;;
2023/04/25 05:55:42;;;;;;;10.7;5.8;;;;;;;9.5;87.8;97700;;;;
2023/04/25 06:06:42;;;;;;;8.6;5.5;;;;;;;9.8;87.4;97710;;;;
2023/04/25 06:16:42;;;;;;;8.6;5.5;;;;;;;9.9;87.1;97710;;;;
2023/04/25 06:26:42;;;;;;;8.6;5.5;;;;;;;9.8;85.5;97720;;;;
2023/04/25 06:36:43;;;;;;;11.1;6.7;;;;;;;9.8;84.9;97720;;;;
2023/04/25 06:46:42;;;;;;;11.1;6.7;;;;;;;10.1;84.7;97730;;;;
2023/04/25 06:57:42;;;;;;;11.1;6.7;;;;;;;10.2;83.9;97720;;;;
2023/04/25 07:07:42;;;;;;;8.9;6.2;;;;;;;10.6;82.4;97720;;;;
2023/04/25 07:18:42;;;;;;;8.9;6.2;;;;;;;11;80.2;97720;;;;
2023/04/25 07:28:43;;;;;;;8.9;6.2;;;;;;;11.2;79.3;97730;;;;
2023/04/25 07:38:43;;;;;;;10.2;6.4;;;;;;;11.3;77.3;97730;;;;
2023/04/25 07:48:42;;;;;;;10.2;6.4;;;;;;;11.6;77.6;97720;;;;
2023/04/25 07:59:42;;;;;;;10.2;6.4;;;;;;;11.5;76.2;97730;;;;
2023/04/25 08:09:42;;;;;;;8.9;4.9;;;;;;;11.7;75.7;97720;;;;
2023/04/25 08:19:43;;;;;;;8.9;4.9;;;;;;;12.2;74.6;97720;;;;
2023/04/25 08:29:42;;;;;;;8.9;4.9;;;;;;;12;73;97720;;;;
2023/04/25 08:40:42;;;;;;;8;4.8;;;;;;;12;73.2;97720;;;;
2023/04/25 08:51:42;;;;;;;8;4.8;;;;;;;11.8;71.2;97730;;;;
2023/04/25 09:01:42;;;;;;;8;4.8;;;;;;;10.8;70.2;97730;;;;
2023/04/25 09:12:43;;;;;;;6.1;3.6;;;;;;;10.8;71.4;97740;;;;
2023/04/25 09:22:43;;;;;;;6.1;3.6;;;;;;;11.1;71.7;97750;;;;
2023/04/25 09:32:42;;;;;;;6.1;3.6;;;;;;;11.8;69.9;97750;;;;
2023/04/25 09:43:44;;;;;;;6;3.5;;;;;;;12.3;66;97740;;;;
2023/04/25 09:54:43;;;;;;;6;3.5;;;;;;;12.9;65.3;97740;;;;
2023/04/25 10:04:43;;;;;;;6;3.5;;;;;;;13.3;64.8;97740;;;;
2023/04/25 10:15:43;;;;;;;5.5;3.5;;;;;;;13;63.5;97740;;;;
2023/04/25 10:26:42;;;;;;;5.5;3.5;;;;;;;12.8;61.7;97730;;;;
2023/04/25 10:36:42;;;;;;;9.1;4.7;;;;;;;12.9;62;97720;;;;
2023/04/25 10:47:43;;;;;;;9.1;4.7;;;;;;;13.3;62.1;97710;;;;
2023/04/25 10:58:43;;;;;;;9.1;4.7;;;;;;;13.4;59.1;97700;;;;
2023/04/25 11:08:43;;;;;;;6.5;3.7;;;;;;;13.3;59;97700;;;;
2023/04/25 11:19:43;;;;;;;6.5;3.7;;;;;;;13;59.7;97700;;;;
2023/04/25 11:29:43;;;;;;;6.5;3.7;;;;;;;13.2;60.9;97700;;;;
2023/04/25 11:39:43;;;;;;;7.3;4;;;;;;;12.9;61.5;97710;;;;
2023/04/25 11:50:43;;;;;;;7.3;4;;;;;;;12.4;63.4;97710;;;;
2023/04/25 12:00:43;;;;;;;7.3;4;;;;;;;12.3;64.1;97710;;;;
2023/04/25 12:11:43;;;;;;;7.1;4.4;;;;;;;12.1;66.2;97710;;;;
2023/04/25 12:22:44;;;;;;;7.1;4.4;;;;;;;11.9;67.7;97710;;;;
2023/04/25 12:32:43;;;;;;;7.1;4.4;;;;;;;11.7;68.3;97710;;;;
2023/04/25 12:43:43;;;;;;;7.5;4.6;;;;;;;11.9;68.2;97710;;;;
2023/04/25 12:54:43;;;;;;;7.5;4.6;;;;;;;12.3;68.6;97710;;;;
2023/04/25 13:04:43;;;;;;;7.5;4.6;;;;;;;12.5;68.2;97700;;;;
2023/04/25 13:15:43;;;;;;;8.3;4.7;;;;;;;12.4;67.5;97710;;;;
2023/04/25 13:25:43;;;;;;;8.3;4.7;;;;;;;12.3;71.3;97710;;;;
2023/04/25 13:35:43;;;;;;;8.8;5.6;;;;;;;11.9;70.8;97710;;;;
2023/04/25 13:45:43;;;;;;;8.8;5.6;;;;;;;11.8;70.3;97710;;;;
2023/04/25 13:56:43;;;;;;;8.8;5.6;;;;;;;12.2;71.8;97710;;;;
2023/04/25 14:06:43;;;;;;;10.3;6.6;;;;;;;12.2;68;97720;;;;
2023/04/25 14:17:45;;;;;;;10.3;6.6;;;;;;;11.7;71.3;97730;;;;
2023/04/25 14:27:47;;;;;;;10.3;6.6;;;;;;;11.4;68.5;97730;;;;
2023/04/25 14:37:43;;;;;;;13;5.6;;;;;;;11.6;67.5;97730;;;;
2023/04/25 14:47:43;;;;;;;13;5.6;;;;;;;11.9;66.9;97730;;;;
2023/04/25 14:57:43;;;;;;;13;5.6;;;;;;;12;70.3;97730;;;;
2023/04/25 15:08:43;;;;;;;9.1;5.3;;;;;;;12.1;71.7;97730;;;;
2023/04/25 15:18:43;;;;;;;9.1;5.3;;;;;;;12.3;71.2;97730;;;;
2023/04/25 15:28:43;;;;;;;9.1;5.3;;;;;;;12.6;69;97730;;;;
2023/04/25 15:39:43;;;;;;;21.7;14.9;;;;;;;13.4;65.1;97720;;;;
2023/04/25 15:50:43;;;;;;;21.7;14.9;;;;;;;13.9;63.2;97720;;;;
2023/04/25 16:00:43;;;;;;;21.7;14.9;;;;;;;13.6;56.1;97720;;;;
2023/04/25 16:11:43;;;;;;;12;7.7;;;;;;;13.5;55.9;97720;;;;
2023/04/25 16:22:43;;;;;;;12;7.7;;;;;;;12.9;56.8;97730;;;;
2023/04/25 16:32:43;;;;;;;12;7.7;;;;;;;12.5;58.2;97730;;;;
2023/04/25 16:43:43;;;;;;;7.4;4.6;;;;;;;12.3;58.2;97730;;;;
2023/04/25 16:53:43;;;;;;;7.4;4.6;;;;;;;12;58.9;97740;;;;
2023/04/25 17:04:43;;;;;;;7.4;4.6;;;;;;;12;59.4;97750;;;;
2023/04/25 17:14:44;;;;;;;9.3;5.1;;;;;;;11.7;60.2;97760;;;;
2023/04/25 17:25:43;;;;;;;9.3;5.1;;;;;;;11.2;61.7;97770;;;;
2023/04/25 17:35:43;;;;;;;11.4;5.4;;;;;;;10.8;62.2;97780;;;;
2023/04/25 17:46:43;;;;;;;11.4;5.4;;;;;;;10.4;62.7;97790;;;;
2023/04/25 17:56:43;;;;;;;11.4;5.4;;;;;;;10.2;63.3;97790;;;;
2023/04/25 18:06:43;;;;;;;7.7;4.5;;;;;;;9.8;64.3;97790;;;;
2023/04/25 18:17:43;;;;;;;7.7;4.5;;;;;;;9.3;65.4;97820;;;;
2023/04/25 18:27:44;;;;;;;7.7;4.5;;;;;;;8.9;67.2;97830;;;;
2023/04/25 18:38:43;;;;;;;9.4;4.8;;;;;;;8.4;67.8;97840;;;;
2023/04/25 18:48:43;;;;;;;9.4;4.8;;;;;;;8;69.1;97850;;;;
2023/04/25 18:59:44;;;;;;;9.4;4.8;;;;;;;7.6;69.4;97870;;;;
2023/04/25 19:09:43;;;;;;;9;4.8;;;;;;;7.2;71.9;97880;;;;
2023/04/25 19:20:43;;;;;;;9;4.8;;;;;;;6.9;72.5;97880;;;;
2023/04/25 19:31:43;;;;;;;9;4.8;;;;;;;6.7;73.3;97900;;;;
2023/04/25 19:41:43;;;;;;;11.5;5.6;;;;;;;6.5;73.7;97910;;;;
2023/04/25 19:51:44;;;;;;;11.5;5.6;;;;;;;6.3;74.4;97910;;;;
2023/04/25 20:02:44;;;;;;;11.5;5.6;;;;;;;6.3;75.5;97910;;;;
2023/04/25 20:12:43;;;;;;;15;7.4;;;;;;;6.4;77.8;97920;;;;
2023/04/25 20:23:43;;;;;;;15;7.4;;;;;;;6.6;78.1;97920;;;;
2023/04/25 20:34:43;;;;;;;20;10.1;;;;;;;6.9;78.9;97930;;;;
2023/04/25 20:44:43;;;;;;;20;10.1;;;;;;;7.1;77.9;97940;;;;
2023/04/25 20:55:43;;;;;;;20;10.1;;;;;;;7.1;77.5;97950;;;;
2023/04/25 21:05:43;;;;;;;18.3;9.8;;;;;;;7;77.4;97950;;;;
2023/04/25 21:16:43;;;;;;;18.3;9.8;;;;;;;6.9;77.4;97950;;;;
2023/04/25 21:27:44;;;;;;;18.3;9.8;;;;;;;7;77.5;97960;;;;
2023/04/25 21:37:43;;;;;;;16.1;9.6;;;;;;;7.2;77.8;97970;;;;
2023/04/25 21:48:43;;;;;;;16.1;9.6;;;;;;;7.3;77.2;97970;;;;
2023/04/25 21:58:43;;;;;;;16.1;9.6;;;;;;;7.5;76.9;97990;;;;
2023/04/25 22:09:43;;;;;;;19.9;10;;;;;;;7.7;76;97990;;;;
2023/04/25 22:20:43;;;;;;;19.9;10;;;;;;;7.8;76.1;98020;;;;
2023/04/25 22:30:43;;;;;;;19.9;10;;;;;;;7.9;75.9;98030;;;;
2023/04/25 22:41:43;;;;;;;14.9;7.5;;;;;;;8;75.8;98040;;;;
2023/04/25 22:52:43;;;;;;;14.9;7.5;;;;;;;8;75.8;98030;;;;
2023/04/25 23:03:43;;;;;;;14.9;7.5;;;;;;;8;75.4;98040;;;;
2023/04/25 23:13:44;;;;;;;10;5.2;;;;;;;8;75.3;98040;;;;
2023/04/25 23:23:44;;;;;;;10;5.2;;;;;;;8;75.3;98050;;;;
2023/04/25 23:34:43;;;;;;;11.2;4.5;;;;;;;7.9;75;98050;;;;
2023/04/25 23:44:43;;;;;;;11.2;4.5;;;;;;;7.9;74.9;98050;;;;
2023/04/25 23:55:43;;;;;;;11.2;4.5;;;;;;;7.9;74.3;98060;;;;
